KCRX/CRX METAR and TAF weather

Enter ICAO airport designator
Station Type Date Time Source
KCRX METAR 2018/01/19 22:35 UTC NOAA

KCRX 192235Z AUTO 18006KT 10SM OVC044 07/M06 A3022 RMK AO2


Station Type Date Time Source
KCRX Decoded METAR 2018/01/19 22:35 UTC NOAA

Station name not available
Jan 19, 2018 - 05:35 PM EST / 2018.01.19 2235 UTC
Wind: from the S (180 degrees) at 7 MPH (6 KT):0
Visibility: 10 mile(s):0
Sky conditions: overcast
Temperature: 44 F (7 C)
Dew Point: 21 F (-6 C)
Relative Humidity: 39%
Pressure (altimeter): 30.22 in. Hg (1023 hPa)
ob: KCRX 192235Z AUTO 18006KT 10SM OVC044 07/M06 A3022 RMK AO2
cycle: 22

Station Type Date Time Source
KCRX TAF UTC NOAA

Error!


Example: see airport list